sensor_id;sensor_type;location;lat;lon;timestamp;P1;durP1;ratioP1;P2;durP2;ratioP2
83026;SDS011;72842;56.038;12.706;2024-01-15T00:01:06;3.63;;;1.45;;
83026;SDS011;72842;56.038;12.706;2024-01-15T00:03:32;5.50;;;1.52;;
83026;SDS011;72842;56.038;12.706;2024-01-15T00:05:57;7.13;;;1.40;;
83026;SDS011;72842;56.038;12.706;2024-01-15T00:08:22;4.32;;;1.45;;
83026;SDS011;72842;56.038;12.706;2024-01-15T00:10:48;6.90;;;1.92;;
83026;SDS011;72842;56.038;12.706;2024-01-15T00:13:13;3.22;;;0.95;;
83026;SDS011;72842;56.038;12.706;2024-01-15T00:15:39;4.93;;;1.25;;
83026;SDS011;72842;56.038;12.706;2024-01-15T00:18:04;6.43;;;1.50;;
83026;SDS011;72842;56.038;12.706;2024-01-15T00:20:30;2.40;;;1.60;;
83026;SDS011;72842;56.038;12.706;2024-01-15T00:22:55;4.28;;;1.33;;
83026;SDS011;72842;56.038;12.706;2024-01-15T00:25:21;3.15;;;1.30;;
83026;SDS011;72842;56.038;12.706;2024-01-15T00:27:46;3.75;;;1.10;;
83026;SDS011;72842;56.038;12.706;2024-01-15T00:30:12;4.45;;;1.77;;
83026;SDS011;72842;56.038;12.706;2024-01-15T00:32:38;8.13;;;2.00;;
83026;SDS011;72842;56.038;12.706;2024-01-15T00:35:03;6.85;;;1.00;;
83026;SDS011;72842;56.038;12.706;2024-01-15T00:37:29;5.38;;;1.23;;
83026;SDS011;72842;56.038;12.706;2024-01-15T00:39:55;4.43;;;1.40;;
83026;SDS011;72842;56.038;12.706;2024-01-15T00:42:20;4.85;;;1.58;;
83026;SDS011;72842;56.038;12.706;2024-01-15T00:44:45;3.53;;;1.50;;
83026;SDS011;72842;56.038;12.706;2024-01-15T00:47:11;3.60;;;2.28;;
83026;SDS011;72842;56.038;12.706;2024-01-15T00:49:36;4.90;;;1.50;;
83026;SDS011;72842;56.038;12.706;2024-01-15T00:52:02;4.20;;;1.00;;
83026;SDS011;72842;56.038;12.706;2024-01-15T00:54:27;5.15;;;1.63;;
83026;SDS011;72842;56.038;12.706;2024-01-15T00:56:52;3.88;;;0.90;;
83026;SDS011;72842;56.038;12.706;2024-01-15T00:59:18;3.90;;;1.13;;
83026;SDS011;72842;56.038;12.706;2024-01-15T01:01:45;6.10;;;1.20;;
83026;SDS011;72842;56.038;12.706;2024-01-15T01:04:11;6.85;;;1.30;;
83026;SDS011;72842;56.038;12.706;2024-01-15T01:06:37;3.47;;;1.23;;
83026;SDS011;72842;56.038;12.706;2024-01-15T01:09:02;4.07;;;1.15;;
83026;SDS011;72842;56.038;12.706;2024-01-15T01:11:28;5.60;;;1.17;;
83026;SDS011;72842;56.038;12.706;2024-01-15T01:13:53;3.47;;;1.15;;
83026;SDS011;72842;56.038;12.706;2024-01-15T01:16:19;4.45;;;1.40;;
83026;SDS011;72842;56.038;12.706;2024-01-15T01:18:45;4.38;;;1.17;;
83026;SDS011;72842;56.038;12.706;2024-01-15T01:21:10;4.63;;;1.40;;
83026;SDS011;72842;56.038;12.706;2024-01-15T01:23:35;4.50;;;1.35;;
83026;SDS011;72842;56.038;12.706;2024-01-15T01:26:01;6.93;;;1.52;;
83026;SDS011;72842;56.038;12.706;2024-01-15T01:28:27;3.75;;;1.27;;
83026;SDS011;72842;56.038;12.706;2024-01-15T01:30:53;3.97;;;1.33;;
83026;SDS011;72842;56.038;12.706;2024-01-15T01:33:19;3.63;;;1.23;;
83026;SDS011;72842;56.038;12.706;2024-01-15T01:35:45;4.50;;;1.20;;
83026;SDS011;72842;56.038;12.706;2024-01-15T01:38:11;6.38;;;1.70;;
83026;SDS011;72842;56.038;12.706;2024-01-15T01:40:37;8.98;;;1.17;;
83026;SDS011;72842;56.038;12.706;2024-01-15T01:43:03;4.55;;;1.25;;
83026;SDS011;72842;56.038;12.706;2024-01-15T01:45:30;3.75;;;1.35;;
83026;SDS011;72842;56.038;12.706;2024-01-15T01:47:55;6.82;;;1.67;;
83026;SDS011;72842;56.038;12.706;2024-01-15T01:50:21;3.92;;;1.23;;
83026;SDS011;72842;56.038;12.706;2024-01-15T01:52:47;4.95;;;1.23;;
83026;SDS011;72842;56.038;12.706;2024-01-15T01:55:13;6.20;;;1.17;;
83026;SDS011;72842;56.038;12.706;2024-01-15T01:57:39;4.20;;;1.25;;
83026;SDS011;72842;56.038;12.706;2024-01-15T02:00:06;5.70;;;1.90;;
83026;SDS011;72842;56.038;12.706;2024-01-15T02:02:33;4.85;;;1.23;;
83026;SDS011;72842;56.038;12.706;2024-01-15T02:04:59;6.13;;;1.88;;
83026;SDS011;72842;56.038;12.706;2024-01-15T02:07:24;5.88;;;1.80;;
83026;SDS011;72842;56.038;12.706;2024-01-15T02:09:50;4.70;;;1.30;;
83026;SDS011;72842;56.038;12.706;2024-01-15T02:12:15;4.57;;;1.15;;
83026;SDS011;72842;56.038;12.706;2024-01-15T02:14:41;9.40;;;1.65;;
83026;SDS011;72842;56.038;12.706;2024-01-15T02:17:07;6.32;;;1.83;;
83026;SDS011;72842;56.038;12.706;2024-01-15T02:19:32;6.97;;;1.40;;
83026;SDS011;72842;56.038;12.706;2024-01-15T02:21:57;3.45;;;1.02;;
83026;SDS011;72842;56.038;12.706;2024-01-15T02:24:23;3.17;;;1.10;;
83026;SDS011;72842;56.038;12.706;2024-01-15T02:26:48;4.07;;;1.40;;
83026;SDS011;72842;56.038;12.706;2024-01-15T02:29:14;6.55;;;1.58;;
83026;SDS011;72842;56.038;12.706;2024-01-15T02:31:40;3.47;;;1.05;;
83026;SDS011;72842;56.038;12.706;2024-01-15T02:34:05;3.92;;;1.40;;
83026;SDS011;72842;56.038;12.706;2024-01-15T02:36:31;5.22;;;1.20;;
83026;SDS011;72842;56.038;12.706;2024-01-15T02:38:56;4.90;;;1.30;;
83026;SDS011;72842;56.038;12.706;2024-01-15T02:41:22;3.28;;;1.00;;
83026;SDS011;72842;56.038;12.706;2024-01-15T02:43:47;5.10;;;1.25;;
83026;SDS011;72842;56.038;12.706;2024-01-15T02:46:13;2.42;;;1.23;;
83026;SDS011;72842;56.038;12.706;2024-01-15T02:48:38;2.72;;;1.08;;
83026;SDS011;72842;56.038;12.706;2024-01-15T02:51:04;5.00;;;1.00;;
83026;SDS011;72842;56.038;12.706;2024-01-15T02:53:29;2.40;;;1.17;;
83026;SDS011;72842;56.038;12.706;2024-01-15T02:55:55;4.00;;;0.95;;
83026;SDS011;72842;56.038;12.706;2024-01-15T02:58:20;3.45;;;1.00;;
83026;SDS011;72842;56.038;12.706;2024-01-15T03:00:46;2.92;;;1.45;;
83026;SDS011;72842;56.038;12.706;2024-01-15T03:03:12;4.82;;;1.63;;
83026;SDS011;72842;56.038;12.706;2024-01-15T03:05:37;2.80;;;0.95;;
83026;SDS011;72842;56.038;12.706;2024-01-15T03:08:03;4.45;;;0.98;;
83026;SDS011;72842;56.038;12.706;2024-01-15T03:10:28;2.53;;;1.00;;
83026;SDS011;72842;56.038;12.706;2024-01-15T03:12:54;4.95;;;1.02;;
83026;SDS011;72842;56.038;12.706;2024-01-15T03:15:19;4.25;;;0.93;;
83026;SDS011;72842;56.038;12.706;2024-01-15T03:17:45;3.13;;;0.70;;
83026;SDS011;72842;56.038;12.706;2024-01-15T03:20:10;2.42;;;1.02;;
83026;SDS011;72842;56.038;12.706;2024-01-15T03:22:36;2.03;;;0.85;;
83026;SDS011;72842;56.038;12.706;2024-01-15T03:25:01;1.60;;;0.65;;
83026;SDS011;72842;56.038;12.706;2024-01-15T03:27:27;2.17;;;0.68;;
83026;SDS011;72842;56.038;12.706;2024-01-15T03:29:52;2.97;;;0.90;;
83026;SDS011;72842;56.038;12.706;2024-01-15T03:32:18;4.63;;;1.27;;
83026;SDS011;72842;56.038;12.706;2024-01-15T03:34:44;2.28;;;0.57;;
83026;SDS011;72842;56.038;12.706;2024-01-15T03:37:11;3.75;;;0.95;;
83026;SDS011;72842;56.038;12.706;2024-01-15T03:39:36;3.67;;;0.90;;
83026;SDS011;72842;56.038;12.706;2024-01-15T03:42:01;1.50;;;0.52;;
83026;SDS011;72842;56.038;12.706;2024-01-15T03:44:27;2.88;;;0.82;;
83026;SDS011;72842;56.038;12.706;2024-01-15T03:46:52;2.85;;;0.75;;
83026;SDS011;72842;56.038;12.706;2024-01-15T03:49:18;3.55;;;0.85;;
83026;SDS011;72842;56.038;12.706;2024-01-15T03:51:43;6.38;;;1.27;;
83026;SDS011;72842;56.038;12.706;2024-01-15T03:54:08;3.10;;;1.20;;
83026;SDS011;72842;56.038;12.706;2024-01-15T03:56:34;4.88;;;1.27;;
83026;SDS011;72842;56.038;12.706;2024-01-15T03:59:00;3.90;;;0.60;;
83026;SDS011;72842;56.038;12.706;2024-01-15T04:01:25;1.67;;;0.70;;
83026;SDS011;72842;56.038;12.706;2024-01-15T04:03:51;1.20;;;0.75;;
83026;SDS011;72842;56.038;12.706;2024-01-15T04:06:16;1.88;;;0.70;;
83026;SDS011;72842;56.038;12.706;2024-01-15T04:08:42;5.35;;;0.70;;
83026;SDS011;72842;56.038;12.706;2024-01-15T04:11:07;1.58;;;0.47;;
83026;SDS011;72842;56.038;12.706;2024-01-15T04:13:32;4.50;;;0.65;;
83026;SDS011;72842;56.038;12.706;2024-01-15T04:15:59;2.15;;;0.80;;
83026;SDS011;72842;56.038;12.706;2024-01-15T04:18:25;3.83;;;0.77;;
83026;SDS011;72842;56.038;12.706;2024-01-15T04:20:51;3.15;;;0.70;;
83026;SDS011;72842;56.038;12.706;2024-01-15T04:23:16;1.83;;;0.90;;
83026;SDS011;72842;56.038;12.706;2024-01-15T04:25:41;0.73;;;0.40;;
83026;SDS011;72842;56.038;12.706;2024-01-15T04:28:10;2.45;;;0.93;;
83026;SDS011;72842;56.038;12.706;2024-01-15T04:30:37;3.05;;;0.82;;
83026;SDS011;72842;56.038;12.706;2024-01-15T04:33:02;2.33;;;0.93;;
83026;SDS011;72842;56.038;12.706;2024-01-15T04:35:28;2.42;;;0.77;;
83026;SDS011;72842;56.038;12.706;2024-01-15T04:37:53;3.25;;;1.00;;
83026;SDS011;72842;56.038;12.706;2024-01-15T04:40:19;3.17;;;0.50;;
83026;SDS011;72842;56.038;12.706;2024-01-15T04:42:44;4.20;;;1.02;;
83026;SDS011;72842;56.038;12.706;2024-01-15T04:45:11;2.08;;;0.52;;
83026;SDS011;72842;56.038;12.706;2024-01-15T04:47:36;1.55;;;0.70;;
83026;SDS011;72842;56.038;12.706;2024-01-15T04:50:02;6.13;;;1.15;;
83026;SDS011;72842;56.038;12.706;2024-01-15T04:52:29;1.60;;;0.50;;
83026;SDS011;72842;56.038;12.706;2024-01-15T04:54:54;1.40;;;0.70;;
83026;SDS011;72842;56.038;12.706;2024-01-15T04:57:20;1.88;;;0.70;;
83026;SDS011;72842;56.038;12.706;2024-01-15T04:59:45;1.40;;;0.85;;
83026;SDS011;72842;56.038;12.706;2024-01-15T05:02:10;4.30;;;0.70;;
83026;SDS011;72842;56.038;12.706;2024-01-15T05:04:36;2.10;;;0.63;;
83026;SDS011;72842;56.038;12.706;2024-01-15T05:07:01;2.80;;;0.57;;
83026;SDS011;72842;56.038;12.706;2024-01-15T05:09:27;3.33;;;1.02;;
83026;SDS011;72842;56.038;12.706;2024-01-15T05:11:53;2.47;;;0.45;;
83026;SDS011;72842;56.038;12.706;2024-01-15T05:14:19;3.35;;;0.63;;
83026;SDS011;72842;56.038;12.706;2024-01-15T05:16:48;1.92;;;0.70;;
83026;SDS011;72842;56.038;12.706;2024-01-15T05:19:14;1.48;;;0.70;;
83026;SDS011;72842;56.038;12.706;2024-01-15T05:21:40;2.10;;;0.32;;
83026;SDS011;72842;56.038;12.706;2024-01-15T05:24:05;5.13;;;0.82;;
83026;SDS011;72842;56.038;12.706;2024-01-15T05:26:31;3.35;;;0.77;;
83026;SDS011;72842;56.038;12.706;2024-01-15T05:28:56;1.45;;;0.60;;
83026;SDS011;72842;56.038;12.706;2024-01-15T05:31:22;1.77;;;0.60;;
83026;SDS011;72842;56.038;12.706;2024-01-15T05:33:47;2.47;;;1.23;;
83026;SDS011;72842;56.038;12.706;2024-01-15T05:36:13;1.88;;;0.88;;
83026;SDS011;72842;56.038;12.706;2024-01-15T05:38:38;2.97;;;0.82;;
83026;SDS011;72842;56.038;12.706;2024-01-15T05:41:04;2.60;;;0.82;;
83026;SDS011;72842;56.038;12.706;2024-01-15T05:43:30;1.40;;;0.52;;
83026;SDS011;72842;56.038;12.706;2024-01-15T05:45:56;2.63;;;0.70;;
83026;SDS011;72842;56.038;12.706;2024-01-15T05:48:21;4.28;;;1.00;;
83026;SDS011;72842;56.038;12.706;2024-01-15T05:50:46;1.33;;;0.82;;
83026;SDS011;72842;56.038;12.706;2024-01-15T05:53:12;3.08;;;1.25;;
83026;SDS011;72842;56.038;12.706;2024-01-15T05:55:37;2.70;;;0.73;;
83026;SDS011;72842;56.038;12.706;2024-01-15T05:58:05;1.13;;;0.55;;
83026;SDS011;72842;56.038;12.706;2024-01-15T06:00:32;1.13;;;0.50;;
83026;SDS011;72842;56.038;12.706;2024-01-15T06:02:59;3.17;;;0.90;;
83026;SDS011;72842;56.038;12.706;2024-01-15T06:05:24;3.25;;;0.90;;
83026;SDS011;72842;56.038;12.706;2024-01-15T06:07:50;1.40;;;0.63;;
83026;SDS011;72842;56.038;12.706;2024-01-15T06:10:15;2.53;;;0.60;;
83026;SDS011;72842;56.038;12.706;2024-01-15T06:12:42;1.25;;;0.50;;
83026;SDS011;72842;56.038;12.706;2024-01-15T06:15:08;0.75;;;0.60;;
83026;SDS011;72842;56.038;12.706;2024-01-15T06:17:34;1.38;;;0.45;;
83026;SDS011;72842;56.038;12.706;2024-01-15T06:19:59;1.63;;;0.93;;
83026;SDS011;72842;56.038;12.706;2024-01-15T06:22:25;2.45;;;0.70;;
83026;SDS011;72842;56.038;12.706;2024-01-15T06:24:50;1.73;;;0.50;;
83026;SDS011;72842;56.038;12.706;2024-01-15T06:27:15;1.05;;;0.50;;
83026;SDS011;72842;56.038;12.706;2024-01-15T06:29:44;0.93;;;0.63;;
83026;SDS011;72842;56.038;12.706;2024-01-15T06:32:13;1.83;;;0.60;;
83026;SDS011;72842;56.038;12.706;2024-01-15T06:34:39;5.13;;;0.70;;
83026;SDS011;72842;56.038;12.706;2024-01-15T06:37:04;1.83;;;0.80;;
83026;SDS011;72842;56.038;12.706;2024-01-15T06:39:30;2.28;;;0.60;;
83026;SDS011;72842;56.038;12.706;2024-01-15T06:41:55;0.68;;;0.55;;
83026;SDS011;72842;56.038;12.706;2024-01-15T06:44:20;1.85;;;0.50;;
83026;SDS011;72842;56.038;12.706;2024-01-15T06:46:46;1.48;;;0.60;;
83026;SDS011;72842;56.038;12.706;2024-01-15T06:49:12;1.40;;;0.70;;
83026;SDS011;72842;56.038;12.706;2024-01-15T06:51:38;2.03;;;0.63;;
83026;SDS011;72842;56.038;12.706;2024-01-15T06:54:03;1.65;;;1.25;;
83026;SDS011;72842;56.038;12.706;2024-01-15T06:56:29;1.30;;;0.80;;
83026;SDS011;72842;56.038;12.706;2024-01-15T06:58:54;1.85;;;0.93;;
83026;SDS011;72842;56.038;12.706;2024-01-15T07:01:20;1.10;;;0.75;;
83026;SDS011;72842;56.038;12.706;2024-01-15T07:03:46;1.13;;;0.40;;
83026;SDS011;72842;56.038;12.706;2024-01-15T07:06:11;2.67;;;0.82;;
83026;SDS011;72842;56.038;12.706;2024-01-15T07:08:37;3.28;;;0.75;;
83026;SDS011;72842;56.038;12.706;2024-01-15T07:11:04;2.53;;;0.57;;
83026;SDS011;72842;56.038;12.706;2024-01-15T07:13:30;1.95;;;0.60;;
83026;SDS011;72842;56.038;12.706;2024-01-15T07:15:55;3.60;;;0.60;;
83026;SDS011;72842;56.038;12.706;2024-01-15T07:18:21;1.67;;;0.73;;
83026;SDS011;72842;56.038;12.706;2024-01-15T07:20:46;3.88;;;0.95;;
83026;SDS011;72842;56.038;12.706;2024-01-15T07:23:12;2.75;;;1.10;;
83026;SDS011;72842;56.038;12.706;2024-01-15T07:25:37;1.45;;;0.82;;
83026;SDS011;72842;56.038;12.706;2024-01-15T07:28:03;3.20;;;0.88;;
83026;SDS011;72842;56.038;12.706;2024-01-15T07:30:28;1.55;;;1.02;;
83026;SDS011;72842;56.038;12.706;2024-01-15T07:32:54;3.15;;;0.70;;
83026;SDS011;72842;56.038;12.706;2024-01-15T07:35:19;1.55;;;0.82;;
83026;SDS011;72842;56.038;12.706;2024-01-15T07:37:45;0.68;;;0.57;;
83026;SDS011;72842;56.038;12.706;2024-01-15T07:40:11;1.15;;;0.70;;
83026;SDS011;72842;56.038;12.706;2024-01-15T07:42:37;2.55;;;0.63;;
83026;SDS011;72842;56.038;12.706;2024-01-15T07:45:03;2.42;;;1.33;;
83026;SDS011;72842;56.038;12.706;2024-01-15T07:47:29;2.42;;;0.85;;
83026;SDS011;72842;56.038;12.706;2024-01-15T07:49:55;1.75;;;1.08;;
83026;SDS011;72842;56.038;12.706;2024-01-15T07:52:21;3.38;;;0.90;;
83026;SDS011;72842;56.038;12.706;2024-01-15T07:54:46;1.45;;;0.60;;
83026;SDS011;72842;56.038;12.706;2024-01-15T07:57:12;2.20;;;0.73;;
83026;SDS011;72842;56.038;12.706;2024-01-15T07:59:38;0.98;;;0.50;;
83026;SDS011;72842;56.038;12.706;2024-01-15T08:02:03;1.45;;;0.65;;
83026;SDS011;72842;56.038;12.706;2024-01-15T08:04:29;2.95;;;1.02;;
83026;SDS011;72842;56.038;12.706;2024-01-15T08:06:54;3.28;;;1.20;;
83026;SDS011;72842;56.038;12.706;2024-01-15T08:09:20;2.80;;;0.90;;
83026;SDS011;72842;56.038;12.706;2024-01-15T08:11:45;3.15;;;1.10;;
83026;SDS011;72842;56.038;12.706;2024-01-15T08:14:11;2.45;;;1.00;;
83026;SDS011;72842;56.038;12.706;2024-01-15T08:16:37;4.35;;;1.02;;
83026;SDS011;72842;56.038;12.706;2024-01-15T08:19:03;3.92;;;0.63;;
83026;SDS011;72842;56.038;12.706;2024-01-15T08:21:28;2.75;;;0.73;;
83026;SDS011;72842;56.038;12.706;2024-01-15T08:23:58;1.50;;;0.80;;
83026;SDS011;72842;56.038;12.706;2024-01-15T08:26:27;0.65;;;0.60;;
83026;SDS011;72842;56.038;12.706;2024-01-15T08:28:53;4.15;;;1.98;;
83026;SDS011;72842;56.038;12.706;2024-01-15T08:31:18;2.42;;;0.90;;
83026;SDS011;72842;56.038;12.706;2024-01-15T08:33:43;3.28;;;1.50;;
83026;SDS011;72842;56.038;12.706;2024-01-15T08:36:09;3.58;;;0.70;;
83026;SDS011;72842;56.038;12.706;2024-01-15T08:38:35;1.52;;;1.05;;
83026;SDS011;72842;56.038;12.706;2024-01-15T08:41:00;3.83;;;1.05;;
83026;SDS011;72842;56.038;12.706;2024-01-15T08:43:26;1.80;;;1.30;;
83026;SDS011;72842;56.038;12.706;2024-01-15T08:45:52;1.88;;;1.02;;
83026;SDS011;72842;56.038;12.706;2024-01-15T08:48:18;2.08;;;1.23;;
83026;SDS011;72842;56.038;12.706;2024-01-15T08:50:43;2.42;;;0.77;;
83026;SDS011;72842;56.038;12.706;2024-01-15T08:53:12;2.05;;;0.70;;
83026;SDS011;72842;56.038;12.706;2024-01-15T08:55:38;1.63;;;0.70;;
83026;SDS011;72842;56.038;12.706;2024-01-15T08:58:04;1.23;;;0.57;;
83026;SDS011;72842;56.038;12.706;2024-01-15T09:00:29;0.95;;;0.70;;
83026;SDS011;72842;56.038;12.706;2024-01-15T09:02:55;1.58;;;0.90;;
83026;SDS011;72842;56.038;12.706;2024-01-15T09:05:21;2.45;;;0.80;;
83026;SDS011;72842;56.038;12.706;2024-01-15T09:07:47;5.25;;;0.93;;
83026;SDS011;72842;56.038;12.706;2024-01-15T09:10:13;1.85;;;0.45;;
83026;SDS011;72842;56.038;12.706;2024-01-15T09:12:39;1.90;;;0.75;;
83026;SDS011;72842;56.038;12.706;2024-01-15T09:15:04;4.07;;;1.02;;
83026;SDS011;72842;56.038;12.706;2024-01-15T09:17:31;0.52;;;0.50;;
83026;SDS011;72842;56.038;12.706;2024-01-15T09:19:56;3.50;;;0.65;;
83026;SDS011;72842;56.038;12.706;2024-01-15T09:22:22;2.53;;;0.47;;
83026;SDS011;72842;56.038;12.706;2024-01-15T09:24:47;1.40;;;0.93;;
83026;SDS011;72842;56.038;12.706;2024-01-15T09:27:13;0.70;;;0.50;;
83026;SDS011;72842;56.038;12.706;2024-01-15T09:29:38;0.65;;;0.45;;
83026;SDS011;72842;56.038;12.706;2024-01-15T09:32:07;1.10;;;0.77;;
83026;SDS011;72842;56.038;12.706;2024-01-15T09:34:33;1.08;;;0.40;;
83026;SDS011;72842;56.038;12.706;2024-01-15T09:36:58;1.67;;;0.60;;
83026;SDS011;72842;56.038;12.706;2024-01-15T09:39:25;0.98;;;0.47;;
83026;SDS011;72842;56.038;12.706;2024-01-15T09:41:51;1.83;;;0.70;;
83026;SDS011;72842;56.038;12.706;2024-01-15T09:44:17;1.33;;;0.50;;
83026;SDS011;72842;56.038;12.706;2024-01-15T09:46:44;1.95;;;0.52;;
83026;SDS011;72842;56.038;12.706;2024-01-15T09:49:10;4.60;;;0.93;;
83026;SDS011;72842;56.038;12.706;2024-01-15T09:51:36;0.88;;;0.50;;
83026;SDS011;72842;56.038;12.706;2024-01-15T09:54:03;1.65;;;0.45;;
83026;SDS011;72842;56.038;12.706;2024-01-15T09:56:29;0.75;;;0.40;;
83026;SDS011;72842;56.038;12.706;2024-01-15T09:58:56;0.73;;;0.35;;
83026;SDS011;72842;56.038;12.706;2024-01-15T10:01:22;1.38;;;0.75;;
83026;SDS011;72842;56.038;12.706;2024-01-15T10:03:48;0.63;;;0.43;;
83026;SDS011;72842;56.038;12.706;2024-01-15T10:06:15;0.98;;;0.40;;
83026;SDS011;72842;56.038;12.706;2024-01-15T10:08:47;1.70;;;0.73;;
83026;SDS011;72842;56.038;12.706;2024-01-15T10:13:41;1.33;;;0.50;;
83026;SDS011;72842;56.038;12.706;2024-01-15T10:16:10;2.15;;;0.52;;
83026;SDS011;72842;56.038;12.706;2024-01-15T10:18:36;2.30;;;1.63;;
83026;SDS011;72842;56.038;12.706;2024-01-15T10:21:11;1.27;;;0.60;;
83026;SDS011;72842;56.038;12.706;2024-01-15T10:23:36;0.65;;;0.50;;
83026;SDS011;72842;56.038;12.706;2024-01-15T10:26:02;1.67;;;0.70;;
83026;SDS011;72842;56.038;12.706;2024-01-15T10:28:28;0.82;;;0.47;;
83026;SDS011;72842;56.038;12.706;2024-01-15T10:30:56;0.57;;;0.43;;
83026;SDS011;72842;56.038;12.706;2024-01-15T10:33:22;1.15;;;0.50;;
83026;SDS011;72842;56.038;12.706;2024-01-15T10:35:54;2.22;;;0.50;;
83026;SDS011;72842;56.038;12.706;2024-01-15T10:38:21;0.93;;;0.40;;
83026;SDS011;72842;56.038;12.706;2024-01-15T10:40:47;1.00;;;0.68;;
83026;SDS011;72842;56.038;12.706;2024-01-15T10:43:16;0.73;;;0.50;;
83026;SDS011;72842;56.038;12.706;2024-01-15T10:45:44;1.23;;;0.45;;
83026;SDS011;72842;56.038;12.706;2024-01-15T10:48:10;2.08;;;0.75;;
83026;SDS011;72842;56.038;12.706;2024-01-15T10:50:35;2.50;;;0.60;;
83026;SDS011;72842;56.038;12.706;2024-01-15T10:53:01;3.25;;;0.73;;
83026;SDS011;72842;56.038;12.706;2024-01-15T10:55:28;0.32;;;0.22;;
83026;SDS011;72842;56.038;12.706;2024-01-15T10:57:54;0.90;;;0.50;;
83026;SDS011;72842;56.038;12.706;2024-01-15T11:00:21;0.95;;;0.50;;
83026;SDS011;72842;56.038;12.706;2024-01-15T11:02:47;0.75;;;0.70;;
83026;SDS011;72842;56.038;12.706;2024-01-15T11:05:12;1.95;;;0.90;;
83026;SDS011;72842;56.038;12.706;2024-01-15T11:07:39;0.43;;;0.43;;
83026;SDS011;72842;56.038;12.706;2024-01-15T11:10:06;0.80;;;0.70;;
83026;SDS011;72842;56.038;12.706;2024-01-15T11:12:35;0.85;;;0.50;;
83026;SDS011;72842;56.038;12.706;2024-01-15T11:15:01;0.95;;;0.55;;
83026;SDS011;72842;56.038;12.706;2024-01-15T11:17:30;0.98;;;0.70;;
83026;SDS011;72842;56.038;12.706;2024-01-15T11:20:28;0.95;;;0.30;;
83026;SDS011;72842;56.038;12.706;2024-01-15T11:22:55;1.05;;;0.60;;
83026;SDS011;72842;56.038;12.706;2024-01-15T11:25:22;0.60;;;0.55;;
83026;SDS011;72842;56.038;12.706;2024-01-15T11:27:51;0.63;;;0.63;;
83026;SDS011;72842;56.038;12.706;2024-01-15T11:30:17;0.50;;;0.50;;
83026;SDS011;72842;56.038;12.706;2024-01-15T11:32:45;1.92;;;1.15;;
83026;SDS011;72842;56.038;12.706;2024-01-15T11:35:12;1.63;;;0.65;;
83026;SDS011;72842;56.038;12.706;2024-01-15T11:40:17;12.48;;;2.70;;
83026;SDS011;72842;56.038;12.706;2024-01-15T11:42:44;8.77;;;2.83;;
83026;SDS011;72842;56.038;12.706;2024-01-15T11:45:10;9.93;;;2.47;;
83026;SDS011;72842;56.038;12.706;2024-01-15T11:50:24;8.35;;;2.40;;
83026;SDS011;72842;56.038;12.706;2024-01-15T11:53:00;7.55;;;2.03;;
83026;SDS011;72842;56.038;12.706;2024-01-15T11:55:27;6.63;;;2.20;;
83026;SDS011;72842;56.038;12.706;2024-01-15T11:57:58;12.18;;;2.38;;
83026;SDS011;72842;56.038;12.706;2024-01-15T12:00:26;7.97;;;2.13;;
83026;SDS011;72842;56.038;12.706;2024-01-15T12:02:52;7.07;;;1.88;;
83026;SDS011;72842;56.038;12.706;2024-01-15T12:05:18;7.88;;;1.95;;
83026;SDS011;72842;56.038;12.706;2024-01-15T12:07:45;5.45;;;1.98;;
83026;SDS011;72842;56.038;12.706;2024-01-15T12:10:13;6.68;;;1.98;;
83026;SDS011;72842;56.038;12.706;2024-01-15T12:13:01;4.97;;;1.95;;
83026;SDS011;72842;56.038;12.706;2024-01-15T12:15:30;4.50;;;2.00;;
83026;SDS011;72842;56.038;12.706;2024-01-15T12:17:56;3.45;;;1.48;;
83026;SDS011;72842;56.038;12.706;2024-01-15T12:20:23;5.90;;;1.45;;
83026;SDS011;72842;56.038;12.706;2024-01-15T12:22:50;4.82;;;1.63;;
83026;SDS011;72842;56.038;12.706;2024-01-15T12:25:15;5.28;;;1.77;;
83026;SDS011;72842;56.038;12.706;2024-01-15T12:27:41;4.70;;;1.63;;
83026;SDS011;72842;56.038;12.706;2024-01-15T12:30:06;2.78;;;1.35;;
83026;SDS011;72842;56.038;12.706;2024-01-15T12:32:32;3.53;;;0.98;;
83026;SDS011;72842;56.038;12.706;2024-01-15T12:35:00;3.20;;;1.50;;
83026;SDS011;72842;56.038;12.706;2024-01-15T12:37:25;2.40;;;0.88;;
83026;SDS011;72842;56.038;12.706;2024-01-15T12:39:51;3.35;;;1.25;;
83026;SDS011;72842;56.038;12.706;2024-01-15T12:42:17;2.45;;;1.08;;
83026;SDS011;72842;56.038;12.706;2024-01-15T12:44:42;4.32;;;1.48;;
83026;SDS011;72842;56.038;12.706;2024-01-15T12:47:10;3.53;;;0.90;;
83026;SDS011;72842;56.038;12.706;2024-01-15T12:49:36;2.30;;;1.42;;
83026;SDS011;72842;56.038;12.706;2024-01-15T12:52:02;3.40;;;1.38;;
83026;SDS011;72842;56.038;12.706;2024-01-15T12:54:28;2.78;;;0.77;;
83026;SDS011;72842;56.038;12.706;2024-01-15T12:56:53;2.38;;;0.80;;
83026;SDS011;72842;56.038;12.706;2024-01-15T12:59:19;1.75;;;1.00;;
83026;SDS011;72842;56.038;12.706;2024-01-15T13:01:45;1.40;;;0.63;;
83026;SDS011;72842;56.038;12.706;2024-01-15T13:04:11;2.20;;;0.68;;
83026;SDS011;72842;56.038;12.706;2024-01-15T13:06:46;4.75;;;1.20;;
83026;SDS011;72842;56.038;12.706;2024-01-15T13:09:11;1.10;;;0.65;;
83026;SDS011;72842;56.038;12.706;2024-01-15T13:11:37;2.65;;;1.00;;
83026;SDS011;72842;56.038;12.706;2024-01-15T13:14:02;1.30;;;0.43;;
83026;SDS011;72842;56.038;12.706;2024-01-15T13:16:28;0.70;;;0.50;;
83026;SDS011;72842;56.038;12.706;2024-01-15T13:18:54;1.65;;;0.52;;
83026;SDS011;72842;56.038;12.706;2024-01-15T13:21:21;1.65;;;0.98;;
83026;SDS011;72842;56.038;12.706;2024-01-15T13:23:47;2.25;;;0.93;;
83026;SDS011;72842;56.038;12.706;2024-01-15T13:26:12;1.67;;;0.63;;
83026;SDS011;72842;56.038;12.706;2024-01-15T13:28:38;1.77;;;0.90;;
83026;SDS011;72842;56.038;12.706;2024-01-15T13:31:03;1.20;;;0.40;;
83026;SDS011;72842;56.038;12.706;2024-01-15T13:33:29;1.05;;;0.47;;
83026;SDS011;72842;56.038;12.706;2024-01-15T13:35:55;0.43;;;0.43;;
83026;SDS011;72842;56.038;12.706;2024-01-15T13:38:20;2.78;;;0.65;;
83026;SDS011;72842;56.038;12.706;2024-01-15T13:40:46;1.30;;;0.40;;
83026;SDS011;72842;56.038;12.706;2024-01-15T13:43:11;1.33;;;0.43;;
83026;SDS011;72842;56.038;12.706;2024-01-15T13:45:39;0.82;;;0.65;;
83026;SDS011;72842;56.038;12.706;2024-01-15T13:48:04;1.80;;;0.70;;
83026;SDS011;72842;56.038;12.706;2024-01-15T13:50:30;2.65;;;0.45;;
83026;SDS011;72842;56.038;12.706;2024-01-15T13:52:56;2.33;;;0.63;;
83026;SDS011;72842;56.038;12.706;2024-01-15T13:55:22;0.70;;;0.60;;
83026;SDS011;72842;56.038;12.706;2024-01-15T13:57:47;0.57;;;0.52;;
83026;SDS011;72842;56.038;12.706;2024-01-15T14:00:13;0.95;;;0.52;;
83026;SDS011;72842;56.038;12.706;2024-01-15T14:02:43;1.70;;;0.50;;
83026;SDS011;72842;56.038;12.706;2024-01-15T14:05:09;2.00;;;0.63;;
83026;SDS011;72842;56.038;12.706;2024-01-15T14:07:37;0.50;;;0.38;;
83026;SDS011;72842;56.038;12.706;2024-01-15T14:10:04;1.13;;;0.60;;
83026;SDS011;72842;56.038;12.706;2024-01-15T14:12:30;1.02;;;0.52;;
83026;SDS011;72842;56.038;12.706;2024-01-15T14:14:56;0.70;;;0.47;;
83026;SDS011;72842;56.038;12.706;2024-01-15T14:17:21;0.50;;;0.50;;
83026;SDS011;72842;56.038;12.706;2024-01-15T14:19:47;1.15;;;0.52;;
83026;SDS011;72842;56.038;12.706;2024-01-15T14:22:12;1.05;;;0.40;;
83026;SDS011;72842;56.038;12.706;2024-01-15T14:24:38;1.02;;;0.40;;
83026;SDS011;72842;56.038;12.706;2024-01-15T14:27:04;0.73;;;0.55;;
83026;SDS011;72842;56.038;12.706;2024-01-15T14:29:30;1.45;;;0.32;;
83026;SDS011;72842;56.038;12.706;2024-01-15T14:31:56;4.15;;;0.77;;
83026;SDS011;72842;56.038;12.706;2024-01-15T14:34:21;1.08;;;0.52;;